Terminal Aerodrome Forecast
Issued by NWS

Home | Current Version | Previous Version | Text Only | Print | Product List | Glossary On
Versions: 1 2 3 4 5 6 7 8 9 10 11 12 13 14 15 16 17 18
000
FTUS42 KFFC 272325
TAFFTY
TAF
KFTY 272325Z 2800/2824 10006KT P6SM BKN150
     FM280100 11005KT P6SM VCSH BKN050
     FM280400 11004KT P6SM BKN035
     FM280600 11004KT P6SM BKN025
     FM281000 12005KT 5SM BR BKN006
     FM281400 15005KT P6SM BKN012
     FM281900 19009KT P6SM BKN035=

USA.gov is the U.S. government's official web portal to all federal, state and local government web resources and services.